Time;durP1;ratioP1;P1;durP2;ratioP2;P2;SDS_P1;SDS_P2;PMS_P1;PMS_P2;Temp;Humidity;BMP_temperature;BMP_pressure;BME280_temperature;BME280_humidity;BME280_pressure;Samples;Min_cycle;Max_cycle;Signal;HPM_P1;HPM_P2
2023/12/11 00:01:24;;;;;;;10.85;6.13;;;9.30;99.90;;;;;;4938192;29;20232;-81
2023/12/11 00:03:51;;;;;;;11.27;6.55;;;9.30;99.90;;;;;;4938555;29;20225;-74
2023/12/11 00:06:18;;;;;;;11.48;3.90;;;9.30;99.90;;;;;;4938914;29;20675;-75
2023/12/11 00:08:46;;;;;;;7.70;4.15;;;9.30;99.90;;;;;;4938530;29;20280;-82
2023/12/11 00:11:13;;;;;;;7.10;3.45;;;9.30;99.90;;;;;;4938813;29;20228;-76
2023/12/11 00:13:40;;;;;;;11.88;3.75;;;9.40;99.90;;;;;;4938437;29;20609;-81
2023/12/11 00:16:08;;;;;;;6.03;3.03;;;9.40;99.90;;;;;;4937864;29;20228;-81
2023/12/11 00:18:35;;;;;;;4.15;2.85;;;9.30;99.90;;;;;;4938769;29;20255;-81
2023/12/11 00:21:02;;;;;;;9.23;2.95;;;9.30;99.90;;;;;;4937867;29;20347;-81
2023/12/11 00:23:29;;;;;;;11.05;4.43;;;9.30;99.90;;;;;;4938830;29;20303;-81
2023/12/11 00:25:58;;;;;;;10.18;3.55;;;9.30;99.90;;;;;;4938548;29;20735;-75
2023/12/11 00:28:25;;;;;;;8.50;3.50;;;9.30;99.90;;;;;;4939229;29;20235;-80
2023/12/11 00:30:52;;;;;;;6.82;3.40;;;9.30;99.90;;;;;;4937687;29;20245;-80
2023/12/11 00:33:19;;;;;;;11.50;3.50;;;9.30;99.90;;;;;;4938606;29;20233;-74
2023/12/11 00:35:46;;;;;;;7.25;3.20;;;9.30;99.90;;;;;;4935858;29;20225;-80
2023/12/11 00:38:13;;;;;;;7.95;3.00;;;9.30;99.90;;;;;;4937310;29;20232;-74
2023/12/11 00:40:41;;;;;;;6.50;3.45;;;9.30;99.90;;;;;;4938270;29;20286;-80
2023/12/11 00:43:09;;;;;;;7.28;3.15;;;9.20;99.90;;;;;;4938024;29;20259;-81
2023/12/11 00:45:36;;;;;;;7.22;3.03;;;9.20;99.90;;;;;;4938524;29;20592;-80
2023/12/11 00:48:03;;;;;;;7.97;3.10;;;9.20;99.90;;;;;;4937611;29;20264;-80
2023/12/11 00:50:30;;;;;;;12.93;3.72;;;9.20;99.90;;;;;;4938666;29;20251;-82
2023/12/11 00:52:57;;;;;;;9.43;2.92;;;9.20;99.90;;;;;;4938204;29;20225;-80
2023/12/11 00:55:24;;;;;;;4.68;2.80;;;9.20;99.90;;;;;;4937883;29;20224;-75
2023/12/11 00:57:51;;;;;;;8.73;3.40;;;9.10;99.90;;;;;;4938210;29;20696;-75
2023/12/11 01:00:20;;;;;;;7.40;2.95;;;9.10;99.90;;;;;;4937632;29;20235;-81
2023/12/11 01:02:47;;;;;;;7.78;3.13;;;9.10;99.90;;;;;;4937798;29;20727;-75
2023/12/11 01:05:14;;;;;;;9.32;3.22;;;9.10;99.90;;;;;;4927329;29;20239;-74
2023/12/11 01:07:41;;;;;;;8.15;2.53;;;9.10;99.90;;;;;;4936707;29;20225;-80
2023/12/11 01:10:10;;;;;;;7.88;3.78;;;9.10;99.90;;;;;;4937030;29;20285;-75
2023/12/11 01:12:37;;;;;;;8.02;3.35;;;9.00;99.90;;;;;;4937351;29;20829;-75
2023/12/11 01:15:05;;;;;;;5.78;2.60;;;9.10;99.90;;;;;;4937244;29;20303;-81
2023/12/11 01:17:33;;;;;;;9.27;3.10;;;9.10;99.90;;;;;;4937661;29;20235;-81
2023/12/11 01:20:00;;;;;;;6.63;3.50;;;9.10;99.90;;;;;;4937358;29;20229;-80
2023/12/11 01:22:27;;;;;;;7.10;3.15;;;9.10;99.90;;;;;;4937539;29;20239;-80
2023/12/11 01:24:54;;;;;;;9.35;2.80;;;9.10;99.90;;;;;;4937381;29;20232;-75
2023/12/11 01:27:21;;;;;;;6.47;2.65;;;9.10;99.90;;;;;;4937152;29;20232;-75
2023/12/11 01:29:48;;;;;;;6.78;2.95;;;9.10;99.90;;;;;;4937659;29;20587;-80
2023/12/11 01:32:15;;;;;;;6.00;2.60;;;9.10;99.90;;;;;;4936955;29;20240;-80
2023/12/11 01:34:43;;;;;;;5.00;2.40;;;9.00;99.90;;;;;;4937408;29;20228;-75
2023/12/11 01:37:10;;;;;;;3.50;3.10;;;9.00;99.90;;;;;;4936772;29;20229;-81
2023/12/11 01:39:37;;;;;;;3.58;2.60;;;9.00;99.90;;;;;;4937204;29;20233;-75
2023/12/11 01:42:04;;;;;;;5.28;2.58;;;9.10;99.90;;;;;;4936549;29;20699;-75
2023/12/11 01:44:32;;;;;;;5.97;3.08;;;9.10;99.90;;;;;;4937371;29;20235;-80
2023/12/11 01:47:00;;;;;;;6.00;2.53;;;9.00;99.90;;;;;;4936919;29;20221;-81
2023/12/11 01:49:27;;;;;;;3.45;2.30;;;9.00;99.90;;;;;;4936973;29;20238;-80
2023/12/11 01:51:55;;;;;;;8.43;2.72;;;9.00;99.90;;;;;;4937022;29;20235;-75
2023/12/11 01:54:22;;;;;;;5.82;2.85;;;9.00;99.90;;;;;;4936440;29;20235;-76
2023/12/11 01:56:50;;;;;;;9.32;3.00;;;9.00;99.90;;;;;;4927164;29;20312;-81
2023/12/11 01:59:18;;;;;;;5.25;2.22;;;9.00;99.90;;;;;;4935934;29;20710;-81
2023/12/11 02:01:45;;;;;;;4.70;2.40;;;8.90;99.90;;;;;;4936797;29;20319;-80
2023/12/11 02:04:15;;;;;;;6.97;2.80;;;8.90;99.90;;;;;;4936288;29;20237;-76
2023/12/11 02:06:42;;;;;;;4.15;3.03;;;8.90;99.90;;;;;;4936605;29;20307;-75
2023/12/11 02:09:12;;;;;;;3.55;2.42;;;8.80;99.90;;;;;;4936422;29;20236;-77
2023/12/11 02:11:39;;;;;;;6.20;3.50;;;8.80;99.90;;;;;;4936725;29;20243;-81
2023/12/11 02:14:06;;;;;;;10.88;3.15;;;8.80;99.90;;;;;;4936633;29;20265;-80
2023/12/11 02:16:33;;;;;;;2.83;2.42;;;8.70;99.90;;;;;;4936304;29;21018;-80
2023/12/11 02:19:00;;;;;;;8.98;3.20;;;8.70;99.90;;;;;;4936649;29;20243;-80
2023/12/11 02:21:28;;;;;;;3.65;2.80;;;8.70;99.90;;;;;;4936063;29;20244;-75
2023/12/11 02:24:00;;;;;;;6.28;3.40;;;8.70;99.90;;;;;;4936069;29;20232;-76
2023/12/11 02:26:51;;;;;;;11.02;3.95;;;8.80;99.90;;;;;;4936199;29;20225;-79
2023/12/11 02:29:19;;;;;;;5.00;3.38;;;8.80;99.90;;;;;;4932941;29;20228;-81
2023/12/11 02:31:46;;;;;;;6.20;3.45;;;8.80;99.90;;;;;;4936936;29;20229;-80
2023/12/11 02:34:13;;;;;;;7.05;3.28;;;8.80;99.90;;;;;;4936103;29;20229;-81
2023/12/11 02:36:40;;;;;;;6.55;3.28;;;8.90;99.90;;;;;;4936887;29;20239;-80
2023/12/11 02:39:07;;;;;;;9.13;3.58;;;8.90;99.90;;;;;;4936952;29;20242;-75
2023/12/11 02:41:37;;;;;;;6.53;3.13;;;8.90;99.90;;;;;;4936445;29;20225;-81
2023/12/11 02:44:06;;;;;;;4.20;3.03;;;8.90;99.90;;;;;;4937383;29;20575;-75
2023/12/11 02:46:33;;;;;;;8.45;3.38;;;9.00;99.90;;;;;;4935686;29;20228;-76
2023/12/11 02:49:00;;;;;;;5.22;2.85;;;9.00;99.90;;;;;;4939274;29;20224;-80
2023/12/11 02:51:26;;;;;;;8.02;3.00;;;9.00;99.90;;;;;;4942041;29;20239;-75
2023/12/11 02:53:53;;;;;;;8.77;2.88;;;9.00;99.90;;;;;;4936604;29;20231;-75
2023/12/11 02:56:20;;;;;;;10.20;3.10;;;9.10;99.90;;;;;;4936867;29;20233;-80
2023/12/11 02:58:47;;;;;;;4.00;2.85;;;9.10;99.90;;;;;;4937238;29;20303;-75
2023/12/11 03:01:16;;;;;;;4.85;2.58;;;9.10;99.90;;;;;;4935610;29;20232;-80
2023/12/11 03:03:43;;;;;;;9.50;2.60;;;9.10;99.90;;;;;;4936502;29;20698;-80
2023/12/11 03:06:19;;;;;;;4.80;2.47;;;9.20;99.90;;;;;;4936588;29;20683;-81
2023/12/11 03:08:46;;;;;;;4.35;2.70;;;9.20;99.90;;;;;;4936306;29;20307;-81
2023/12/11 03:11:13;;;;;;;7.90;2.88;;;9.20;99.90;;;;;;4935891;29;20228;-75
2023/12/11 03:13:40;;;;;;;5.57;2.50;;;9.30;99.90;;;;;;4935699;29;20228;-75
2023/12/11 03:16:07;;;;;;;10.45;4.00;;;9.30;99.90;;;;;;4936260;29;20640;-75
2023/12/11 03:18:36;;;;;;;5.30;2.63;;;9.30;99.90;;;;;;4935639;29;20577;-80
2023/12/11 03:21:03;;;;;;;4.43;3.15;;;9.40;99.90;;;;;;4928159;29;20260;-75
2023/12/11 03:23:29;;;;;;;4.00;2.40;;;9.50;99.90;;;;;;4935251;29;20236;-75
2023/12/11 03:25:56;;;;;;;8.20;2.95;;;9.50;99.90;;;;;;4936007;29;20225;-75
2023/12/11 03:28:25;;;;;;;5.55;2.95;;;9.60;99.90;;;;;;4935989;29;20232;-75
2023/12/11 03:30:52;;;;;;;6.35;3.20;;;9.60;99.90;;;;;;4936133;29;21028;-80
2023/12/11 03:33:19;;;;;;;7.90;2.35;;;9.70;99.90;;;;;;4936078;29;20229;-81
2023/12/11 03:35:48;;;;;;;5.90;2.83;;;9.70;99.90;;;;;;4938905;29;20249;-80
2023/12/11 03:38:14;;;;;;;4.57;3.20;;;9.70;99.90;;;;;;4939862;29;20232;-75
2023/12/11 03:40:41;;;;;;;10.05;3.80;;;9.70;99.90;;;;;;4939214;29;20228;-75
2023/12/11 03:43:10;;;;;;;5.30;2.90;;;9.70;99.90;;;;;;4939505;29;20245;-80
2023/12/11 03:45:37;;;;;;;10.95;3.40;;;9.80;99.90;;;;;;4938270;29;20678;-80
2023/12/11 03:48:04;;;;;;;6.80;2.78;;;9.80;99.90;;;;;;4939421;29;20311;-80
2023/12/11 03:50:31;;;;;;;3.80;2.05;;;9.90;99.90;;;;;;4938688;29;20232;-80
2023/12/11 03:53:05;;;;;;;4.82;2.42;;;9.90;99.90;;;;;;4939336;29;20221;-75
2023/12/11 03:55:32;;;;;;;6.25;3.35;;;10.00;99.90;;;;;;4938557;29;20249;-75
2023/12/11 03:57:59;;;;;;;3.78;2.50;;;10.00;99.90;;;;;;4939492;29;20240;-76
2023/12/11 04:00:26;;;;;;;5.95;2.20;;;10.00;99.90;;;;;;4939144;29;20233;-80
2023/12/11 04:03:02;;;;;;;3.83;2.50;;;10.10;99.90;;;;;;4938339;29;20236;-80
2023/12/11 04:05:28;;;;;;;10.10;2.92;;;10.10;99.90;;;;;;4939186;29;20686;-81
2023/12/11 04:07:56;;;;;;;6.35;2.78;;;10.20;99.90;;;;;;4938774;29;20224;-74
2023/12/11 04:10:24;;;;;;;7.72;2.95;;;10.20;99.90;;;;;;4938742;29;20236;-75
2023/12/11 04:12:51;;;;;;;6.45;3.00;;;10.20;99.90;;;;;;4938215;29;20237;-75
2023/12/11 04:15:18;;;;;;;6.05;2.63;;;10.20;99.90;;;;;;4938949;29;20229;-75
2023/12/11 04:17:45;;;;;;;5.25;2.75;;;10.30;99.90;;;;;;4938589;29;20256;-81
2023/12/11 04:20:12;;;;;;;9.48;3.90;;;10.30;99.90;;;;;;4939139;29;20228;-80
2023/12/11 04:22:39;;;;;;;6.03;2.60;;;10.30;99.90;;;;;;4938162;29;20295;-80
2023/12/11 04:25:07;;;;;;;11.63;3.88;;;10.40;99.90;;;;;;4938920;29;20272;-75
2023/12/11 04:27:35;;;;;;;7.05;3.15;;;10.40;99.90;;;;;;4938531;29;20240;-75
2023/12/11 04:30:02;;;;;;;10.90;3.60;;;10.50;99.90;;;;;;4938895;29;20680;-74
2023/12/11 04:32:29;;;;;;;7.78;3.05;;;10.50;99.90;;;;;;4938205;29;20602;-75
2023/12/11 04:34:56;;;;;;;7.68;2.63;;;10.50;99.90;;;;;;4938160;29;20224;-75
2023/12/11 04:37:22;;;;;;;9.52;3.58;;;10.50;99.90;;;;;;4938394;29;20232;-80
2023/12/11 04:39:49;;;;;;;6.13;3.22;;;10.50;99.90;;;;;;4938028;29;20232;-80
2023/12/11 04:42:17;;;;;;;5.70;2.55;;;10.50;99.90;;;;;;4938470;29;20602;-81
2023/12/11 04:44:45;;;;;;;6.93;4.13;;;10.50;99.90;;;;;;4937822;29;20235;-75
2023/12/11 04:47:12;;;;;;;8.70;3.15;;;10.60;99.90;;;;;;4938790;29;20220;-80
2023/12/11 04:49:39;;;;;;;7.22;3.95;;;10.60;99.90;;;;;;4938242;29;20228;-75
2023/12/11 04:52:06;;;;;;;8.25;3.42;;;10.60;99.90;;;;;;4938335;29;20244;-75
2023/12/11 04:54:33;;;;;;;11.05;3.85;;;10.60;99.90;;;;;;4938043;29;20628;-74
2023/12/11 04:57:02;;;;;;;6.85;3.03;;;10.60;99.90;;;;;;4937323;29;20229;-80
2023/12/11 04:59:29;;;;;;;5.00;2.60;;;10.70;99.90;;;;;;4938067;29;20676;-81
2023/12/11 05:04:42;;;;;;;8.90;3.35;;;10.70;99.90;;;;;;4933264;29;20225;-75
2023/12/11 05:07:09;;;;;;;6.93;2.35;;;10.70;99.90;;;;;;4937749;29;20229;-76
2023/12/11 05:09:37;;;;;;;10.63;3.95;;;10.70;99.90;;;;;;4936122;29;20306;-76
2023/12/11 05:12:05;;;;;;;5.20;3.35;;;10.70;99.90;;;;;;4936225;29;20229;-81
2023/12/11 05:14:32;;;;;;;7.80;3.45;;;10.70;99.90;;;;;;4937754;29;20606;-76
2023/12/11 05:17:01;;;;;;;8.18;3.25;;;10.70;99.90;;;;;;4936740;29;20311;-76
2023/12/11 05:19:31;;;;;;;8.43;3.90;;;10.70;99.90;;;;;;4937708;29;20221;-75
2023/12/11 05:21:58;;;;;;;7.10;3.30;;;10.70;99.90;;;;;;4937219;29;20229;-75
2023/12/11 05:24:25;;;;;;;10.02;3.42;;;10.70;99.90;;;;;;4937604;29;20228;-82
2023/12/11 05:26:52;;;;;;;5.38;2.88;;;10.70;99.90;;;;;;4937307;29;20232;-76
2023/12/11 05:29:19;;;;;;;8.27;3.40;;;10.70;99.90;;;;;;4936656;29;20224;-81
2023/12/11 05:31:46;;;;;;;5.93;2.47;;;10.70;99.90;;;;;;4937070;29;20686;-81
2023/12/11 05:34:15;;;;;;;11.60;3.80;;;10.70;99.90;;;;;;4937942;29;20674;-76
2023/12/11 05:36:53;;;;;;;8.27;3.35;;;10.70;99.90;;;;;;4937083;29;20236;-80
2023/12/11 05:39:20;;;;;;;6.00;3.80;;;10.70;99.90;;;;;;4937541;29;20224;-76
2023/12/11 05:41:47;;;;;;;6.57;3.63;;;10.70;99.90;;;;;;4936556;29;20233;-76
2023/12/11 05:44:14;;;;;;;6.70;2.70;;;10.70;99.90;;;;;;4937173;29;20229;-75
2023/12/11 05:46:41;;;;;;;10.52;4.10;;;10.70;99.90;;;;;;4937650;29;20232;-82
2023/12/11 05:49:09;;;;;;;4.65;2.15;;;10.70;99.90;;;;;;4936833;29;20239;-76
2023/12/11 05:51:38;;;;;;;5.13;2.88;;;10.70;99.90;;;;;;4937242;29;20244;-76
2023/12/11 05:54:05;;;;;;;7.18;4.40;;;10.70;99.90;;;;;;4936764;29;20614;-81
2023/12/11 05:56:33;;;;;;;3.15;2.20;;;10.70;99.90;;;;;;4936715;29;20679;-81
2023/12/11 05:58:59;;;;;;;7.30;2.70;;;10.70;99.90;;;;;;4936219;29;20317;-82
2023/12/11 06:01:27;;;;;;;10.73;4.18;;;10.70;99.90;;;;;;4936946;29;20586;-76
2023/12/11 06:03:54;;;;;;;2.58;2.38;;;10.70;99.90;;;;;;4936159;29;20316;-76
2023/12/11 06:06:21;;;;;;;4.35;2.28;;;10.70;99.90;;;;;;4937103;29;20231;-75
2023/12/11 06:08:50;;;;;;;5.38;3.65;;;10.70;99.90;;;;;;4936783;29;20230;-81
2023/12/11 06:11:17;;;;;;;8.57;3.40;;;10.70;99.90;;;;;;4936851;29;20225;-81
2023/12/11 06:13:44;;;;;;;6.28;2.95;;;10.70;99.90;;;;;;4936918;29;20235;-76
2023/12/11 06:16:13;;;;;;;5.35;3.05;;;10.70;99.90;;;;;;4936227;29;20280;-81
2023/12/11 06:18:41;;;;;;;7.03;3.65;;;10.70;99.90;;;;;;4936607;29;20252;-76
2023/12/11 06:21:17;;;;;;;3.88;2.55;;;10.70;99.90;;;;;;4935825;29;20284;-81
2023/12/11 06:23:44;;;;;;;7.57;5.55;;;10.70;99.90;;;;;;4934924;29;20700;-76
2023/12/11 06:26:25;;;;;;;10.70;5.47;;;10.70;99.90;;;;;;4936240;29;20236;-81
2023/12/11 06:28:52;;;;;;;7.82;4.50;;;10.70;99.90;;;;;;4935336;29;20300;-81
2023/12/11 06:31:19;;;;;;;9.85;6.40;;;10.70;99.90;;;;;;4936016;29;20221;-76
2023/12/11 06:33:46;;;;;;;10.15;5.60;;;10.70;99.90;;;;;;4936301;29;20279;-76
2023/12/11 06:36:13;;;;;;;8.43;4.00;;;10.60;99.90;;;;;;4936154;29;20229;-76
2023/12/11 06:38:41;;;;;;;5.93;3.00;;;10.60;99.90;;;;;;4936405;29;20231;-75
2023/12/11 06:41:07;;;;;;;14.25;4.50;;;10.60;99.90;;;;;;4936803;29;20543;-81
2023/12/11 06:43:36;;;;;;;7.38;3.60;;;10.60;99.90;;;;;;4936600;29;20263;-75
2023/12/11 06:46:03;;;;;;;16.95;8.93;;;10.60;99.90;;;;;;4935738;29;20621;-75
2023/12/11 06:51:11;;;;;;;8.48;3.78;;;10.50;99.90;;;;;;4923499;29;20228;-76
2023/12/11 06:53:38;;;;;;;9.45;4.57;;;10.40;99.90;;;;;;4936625;29;20240;-76
2023/12/11 06:56:06;;;;;;;6.55;3.15;;;10.40;99.90;;;;;;4937394;29;20358;-76
2023/12/11 06:58:33;;;;;;;4.68;2.90;;;10.40;99.90;;;;;;4936563;29;20221;-75
2023/12/11 07:01:01;;;;;;;5.43;3.22;;;10.40;99.90;;;;;;4936000;29;20228;-76
2023/12/11 07:03:28;;;;;;;7.07;2.60;;;10.40;99.90;;;;;;4935277;29;20236;-76
2023/12/11 07:05:55;;;;;;;5.97;3.15;;;10.40;99.90;;;;;;4936371;29;20221;-76
2023/12/11 07:08:22;;;;;;;7.43;5.95;;;10.40;99.90;;;;;;4936215;29;20651;-76
2023/12/11 07:10:49;;;;;;;11.65;5.75;;;10.40;99.90;;;;;;4939669;29;20288;-76
2023/12/11 07:13:16;;;;;;;8.82;5.00;;;10.40;99.90;;;;;;4937872;29;20229;-76
2023/12/11 07:15:43;;;;;;;10.50;5.55;;;10.40;99.90;;;;;;4939913;29;20224;-76
2023/12/11 07:18:13;;;;;;;11.90;6.50;;;10.30;99.90;;;;;;4939291;29;20237;-75
2023/12/11 07:20:41;;;;;;;11.05;4.22;;;10.30;99.90;;;;;;4939851;29;20232;-76
2023/12/11 07:23:10;;;;;;;9.63;6.15;;;10.40;99.90;;;;;;4939229;29;20240;-76
2023/12/11 07:25:36;;;;;;;9.00;4.20;;;10.30;99.90;;;;;;4939804;29;20312;-75
2023/12/11 07:28:04;;;;;;;7.65;5.35;;;10.30;99.90;;;;;;4939182;29;20541;-76
2023/12/11 07:30:31;;;;;;;8.45;3.67;;;10.30;99.90;;;;;;4941172;29;20228;-76
2023/12/11 07:32:58;;;;;;;6.55;3.90;;;10.30;99.90;;;;;;4941570;29;20228;-76
2023/12/11 07:35:26;;;;;;;10.88;3.33;;;10.30;99.90;;;;;;4941186;29;20251;-76
2023/12/11 07:37:53;;;;;;;3.75;2.92;;;10.30;99.90;;;;;;4941038;29;20252;-75
2023/12/11 07:40:20;;;;;;;6.80;2.72;;;10.30;99.90;;;;;;4941176;29;20232;-76
2023/12/11 07:42:47;;;;;;;7.63;2.70;;;10.30;99.90;;;;;;4940274;29;20240;-75
2023/12/11 07:45:15;;;;;;;6.18;2.80;;;10.30;99.90;;;;;;4939298;29;20295;-76
2023/12/11 07:47:45;;;;;;;5.70;3.58;;;10.30;99.90;;;;;;4940419;29;20320;-76
2023/12/11 07:50:12;;;;;;;8.25;2.88;;;10.30;99.90;;;;;;4939260;29;20237;-76
2023/12/11 07:52:41;;;;;;;10.25;3.60;;;10.30;99.90;;;;;;4939615;29;20304;-75
2023/12/11 07:55:08;;;;;;;4.88;2.95;;;10.30;99.90;;;;;;4939491;29;20229;-76
2023/12/11 07:57:35;;;;;;;6.43;4.13;;;10.30;99.90;;;;;;4940166;29;20239;-75
2023/12/11 08:00:04;;;;;;;7.90;2.95;;;10.30;99.90;;;;;;4939368;29;20252;-77
2023/12/11 08:02:31;;;;;;;12.10;3.53;;;10.40;99.90;;;;;;4924048;29;20675;-76
2023/12/11 08:04:58;;;;;;;6.70;2.90;;;10.40;99.90;;;;;;4938824;29;20220;-75
2023/12/11 08:07:25;;;;;;;6.53;3.08;;;10.30;99.90;;;;;;4939566;29;20308;-75
2023/12/11 08:09:53;;;;;;;6.28;2.50;;;10.30;99.90;;;;;;4938839;29;20229;-75
2023/12/11 08:12:20;;;;;;;9.23;3.33;;;10.30;99.90;;;;;;4939144;29;20232;-75
2023/12/11 08:14:47;;;;;;;8.85;2.55;;;10.40;99.90;;;;;;4938913;29;20236;-76
2023/12/11 08:17:14;;;;;;;10.43;2.67;;;10.40;99.90;;;;;;4939207;29;20232;-75
2023/12/11 08:19:44;;;;;;;8.20;3.75;;;10.30;99.90;;;;;;4938385;29;20224;-75
2023/12/11 08:22:11;;;;;;;11.68;2.90;;;10.30;99.90;;;;;;4938482;29;20689;-75
2023/12/11 08:24:41;;;;;;;8.98;3.10;;;10.40;99.90;;;;;;4938286;29;20239;-76
2023/12/11 08:27:09;;;;;;;6.35;2.58;;;10.40;99.90;;;;;;4938480;29;20225;-76
2023/12/11 08:29:39;;;;;;;7.93;4.75;;;10.40;99.90;;;;;;4938338;29;20228;-76
2023/12/11 08:32:06;;;;;;;10.00;4.57;;;10.40;99.90;;;;;;4938008;29;20233;-75
2023/12/11 08:34:34;;;;;;;8.98;4.05;;;10.40;99.90;;;;;;4938496;29;20288;-75
2023/12/11 08:37:09;;;;;;;6.93;4.07;;;10.40;99.90;;;;;;4938188;29;20323;-75
2023/12/11 08:39:36;;;;;;;7.40;2.90;;;10.40;99.90;;;;;;4938509;29;20254;-75
2023/12/11 08:42:04;;;;;;;12.48;3.47;;;10.30;99.90;;;;;;4938183;29;20233;-75
2023/12/11 08:44:32;;;;;;;5.35;3.70;;;10.40;99.90;;;;;;4938504;29;20225;-76
2023/12/11 08:46:59;;;;;;;12.93;3.65;;;10.30;99.90;;;;;;4937819;29;20239;-75
2023/12/11 08:49:26;;;;;;;6.80;3.10;;;10.40;99.90;;;;;;4938203;29;20239;-76
2023/12/11 08:51:53;;;;;;;8.30;3.25;;;10.40;99.90;;;;;;4937776;29;20287;-75
2023/12/11 08:54:20;;;;;;;10.35;3.10;;;10.40;99.90;;;;;;4938130;29;20225;-74
2023/12/11 08:56:47;;;;;;;10.23;2.58;;;10.40;99.90;;;;;;4938901;29;20231;-75
2023/12/11 08:59:15;;;;;;;5.03;2.28;;;10.40;99.90;;;;;;4937819;29;20224;-75
2023/12/11 09:01:44;;;;;;;7.88;3.42;;;10.50;99.90;;;;;;4938188;29;20231;-75
2023/12/11 09:04:11;;;;;;;7.65;2.53;;;10.50;99.90;;;;;;4937637;29;20279;-75
2023/12/11 09:06:38;;;;;;;12.77;2.83;;;10.50;99.90;;;;;;4937632;29;20232;-75
2023/12/11 09:09:05;;;;;;;9.20;3.22;;;10.50;99.90;;;;;;4937681;29;20322;-75
2023/12/11 09:11:32;;;;;;;6.10;2.63;;;10.50;99.90;;;;;;4937901;29;20311;-75
2023/12/11 09:13:59;;;;;;;5.97;2.50;;;10.50;99.90;;;;;;4937350;29;20300;-75
2023/12/11 09:16:26;;;;;;;7.53;2.22;;;10.50;99.90;;;;;;4938181;29;20690;-75
2023/12/11 09:18:55;;;;;;;10.10;3.28;;;10.50;99.90;;;;;;4937723;29;20537;-75
2023/12/11 09:21:22;;;;;;;8.13;2.95;;;10.50;99.90;;;;;;4937857;29;20232;-75
2023/12/11 09:23:49;;;;;;;9.75;3.15;;;10.50;99.90;;;;;;4937540;29;20256;-75
2023/12/11 09:26:16;;;;;;;11.25;3.40;;;10.50;99.90;;;;;;4937187;29;20247;-75
2023/12/11 09:28:43;;;;;;;7.35;3.28;;;10.50;99.90;;;;;;4937887;29;20686;-75
2023/12/11 09:31:10;;;;;;;6.85;2.20;;;10.60;99.90;;;;;;4936271;29;20236;-75
2023/12/11 09:33:40;;;;;;;7.78;2.85;;;10.60;99.90;;;;;;4937295;29;20624;-75
2023/12/11 09:36:09;;;;;;;9.02;3.45;;;10.60;99.90;;;;;;4937051;29;20574;-75
2023/12/11 09:38:36;;;;;;;6.18;2.90;;;10.60;99.90;;;;;;4937402;29;20611;-75
2023/12/11 09:41:03;;;;;;;7.53;2.70;;;10.60;99.90;;;;;;4937188;29;20232;-75
2023/12/11 09:43:30;;;;;;;5.95;3.35;;;10.70;99.90;;;;;;4937339;29;20576;-75
2023/12/11 09:45:59;;;;;;;8.95;3.17;;;10.60;99.90;;;;;;4937083;29;20229;-75
2023/12/11 09:48:26;;;;;;;8.73;3.38;;;10.60;99.90;;;;;;4937440;29;20559;-75
2023/12/11 09:50:53;;;;;;;7.82;3.05;;;10.70;99.90;;;;;;4937125;29;20695;-74
2023/12/11 09:53:22;;;;;;;4.65;2.53;;;10.60;99.90;;;;;;4936889;29;20231;-75
2023/12/11 09:55:49;;;;;;;6.90;3.10;;;10.70;99.90;;;;;;4936533;29;20683;-75
2023/12/11 09:58:17;;;;;;;8.98;4.25;;;10.70;99.90;;;;;;4936852;29;20287;-81
2023/12/11 10:00:44;;;;;;;8.95;6.70;;;10.80;99.90;;;;;;4937380;29;20244;-74
2023/12/11 10:03:11;;;;;;;13.13;7.13;;;10.80;99.90;;;;;;4930412;29;20288;-75
2023/12/11 10:05:38;;;;;;;9.07;5.93;;;10.80;99.90;;;;;;4936341;29;20229;-75
2023/12/11 10:08:05;;;;;;;10.35;6.38;;;10.90;99.90;;;;;;4936467;29;20690;-76
2023/12/11 10:10:37;;;;;;;10.63;6.65;;;10.90;99.90;;;;;;4936468;29;20235;-75
2023/12/11 10:13:04;;;;;;;7.53;4.03;;;10.90;99.90;;;;;;4936461;29;20248;-75
2023/12/11 10:15:32;;;;;;;9.23;3.92;;;10.90;99.90;;;;;;4937228;29;20560;-74
2023/12/11 10:18:03;;;;;;;5.45;3.20;;;10.90;99.90;;;;;;4936124;29;20233;-75
2023/12/11 10:20:32;;;;;;;7.75;2.83;;;10.90;99.90;;;;;;4936572;29;20232;-75
2023/12/11 10:22:59;;;;;;;5.60;2.45;;;10.90;99.90;;;;;;4939600;29;20236;-80
2023/12/11 10:25:27;;;;;;;7.40;3.20;;;10.90;99.90;;;;;;4955592;29;20227;-81
2023/12/11 10:28:09;;;;;;;8.90;2.10;;;10.90;99.90;;;;;;4956077;29;20224;-81
2023/12/11 10:30:51;;;;;;;5.00;3.25;;;10.90;99.90;;;;;;4956294;28;20235;-81
2023/12/11 10:33:18;;;;;;;4.05;2.67;;;10.90;99.90;;;;;;4955759;29;20283;-81
2023/12/11 10:35:45;;;;;;;6.05;2.65;;;11.00;99.90;;;;;;4956633;29;20316;-81
2023/12/11 10:38:20;;;;;;;3.60;2.20;;;11.00;99.90;;;;;;4953515;28;20236;-81
2023/12/11 10:40:49;;;;;;;5.93;2.58;;;11.00;99.90;;;;;;4956699;28;20224;-83
2023/12/11 10:43:18;;;;;;;3.10;2.45;;;11.00;99.90;;;;;;4955815;28;20228;-81
2023/12/11 10:45:45;;;;;;;6.85;2.97;;;11.00;99.90;;;;;;4957215;28;20228;-82
2023/12/11 10:48:13;;;;;;;7.60;3.10;;;11.00;99.90;;;;;;4964771;28;20224;-81
2023/12/11 10:50:40;;;;;;;9.50;3.60;;;11.00;99.90;;;;;;4964244;28;20220;-81
2023/12/11 10:53:09;;;;;;;5.82;3.28;;;11.00;99.90;;;;;;4956998;29;20235;-82
2023/12/11 10:55:38;;;;;;;9.95;4.75;;;11.00;99.90;;;;;;4956802;29;20224;-82
2023/12/11 10:58:08;;;;;;;6.45;4.50;;;11.00;99.90;;;;;;4957459;29;20351;-81
2023/12/11 11:00:46;;;;;;;8.75;3.20;;;11.00;99.90;;;;;;4957031;29;20258;-81
2023/12/11 11:03:14;;;;;;;6.40;3.20;;;11.00;99.90;;;;;;4961588;29;20227;-80
2023/12/11 11:05:42;;;;;;;4.90;2.55;;;10.90;99.90;;;;;;4944407;29;20228;-81
2023/12/11 11:08:20;;;;;;;6.00;2.85;;;11.00;99.90;;;;;;4940187;29;20571;-81
2023/12/11 11:10:53;;;;;;;5.15;2.33;;;11.00;99.90;;;;;;4942214;28;20219;-81
2023/12/11 11:13:22;;;;;;;4.10;2.67;;;11.00;99.90;;;;;;4959510;28;20704;-82
2023/12/11 11:15:54;;;;;;;8.90;3.17;;;10.90;99.90;;;;;;4956887;28;20232;-81
2023/12/11 11:18:21;;;;;;;7.50;2.95;;;10.90;99.90;;;;;;4958005;29;20236;-81
2023/12/11 11:21:10;;;;;;;6.13;2.85;;;10.90;99.90;;;;;;4960823;28;20283;-81
2023/12/11 11:23:42;;;;;;;8.70;3.33;;;10.90;99.90;;;;;;4961760;28;20298;-81
2023/12/11 11:26:32;;;;;;;6.50;3.03;;;10.80;99.90;;;;;;4963696;28;20243;-81
2023/12/11 11:28:59;;;;;;;6.72;3.05;;;10.80;99.90;;;;;;4961824;28;20260;-81
2023/12/11 11:31:52;;;;;;;6.53;2.60;;;10.80;99.90;;;;;;4970106;28;20224;-80
2023/12/11 11:34:44;;;;;;;5.35;3.05;;;10.80;99.90;;;;;;4977241;28;20685;-76
2023/12/11 11:37:14;;;;;;;11.02;3.33;;;10.80;99.90;;;;;;4972331;28;20231;-75
2023/12/11 11:39:57;;;;;;;5.55;2.17;;;10.90;99.90;;;;;;4975168;28;20227;-76
2023/12/11 11:42:24;;;;;;;7.22;3.10;;;10.90;99.90;;;;;;4971895;28;20255;-81
2023/12/11 11:44:56;;;;;;;11.23;3.10;;;10.90;99.90;;;;;;4970449;28;20228;-82
2023/12/11 11:47:24;;;;;;;6.53;2.47;;;10.90;99.90;;;;;;4980874;28;20231;-81
2023/12/11 11:49:54;;;;;;;7.22;2.45;;;11.00;99.90;;;;;;4956432;28;20233;-81
2023/12/11 11:52:27;;;;;;;4.72;2.22;;;11.00;99.90;;;;;;4941841;29;20300;-81
2023/12/11 11:54:58;;;;;;;8.30;4.25;;;11.00;99.90;;;;;;4938555;29;20296;-82
2023/12/11 11:57:28;;;;;;;8.90;5.05;;;11.10;99.90;;;;;;4957026;28;20216;-82
2023/12/11 11:59:56;;;;;;;7.15;4.63;;;11.10;99.90;;;;;;4987891;28;20279;-82
2023/12/11 12:02:25;;;;;;;6.10;4.20;;;11.10;99.90;;;;;;4988959;28;20235;-80
2023/12/11 12:04:52;;;;;;;6.43;3.13;;;11.20;99.90;;;;;;4991507;28;20242;-81
2023/12/11 12:07:19;;;;;;;5.55;2.92;;;11.20;99.90;;;;;;4984228;28;20247;-79
2023/12/11 12:09:51;;;;;;;7.60;2.95;;;11.20;99.90;;;;;;4980347;28;20246;-81
2023/12/11 12:12:18;;;;;;;4.75;2.65;;;11.20;99.90;;;;;;4964796;28;20232;-81
2023/12/11 12:14:45;;;;;;;4.45;2.17;;;11.20;99.90;;;;;;4958748;29;20925;-81
2023/12/11 12:17:12;;;;;;;3.67;2.75;;;11.30;99.90;;;;;;4959290;29;20228;-81
2023/12/11 12:19:41;;;;;;;12.65;4.10;;;11.30;99.90;;;;;;4958592;29;20224;-82
2023/12/11 12:22:09;;;;;;;6.45;3.20;;;11.30;99.90;;;;;;4958321;29;20232;-82
2023/12/11 12:24:39;;;;;;;4.13;2.70;;;11.30;99.90;;;;;;4959360;28;20224;-75
2023/12/11 12:27:12;;;;;;;8.50;3.83;;;11.30;99.90;;;;;;4957805;29;20275;-75
2023/12/11 12:29:42;;;;;;;7.75;3.67;;;11.40;99.90;;;;;;4957270;29;20260;-74
2023/12/11 12:32:10;;;;;;;10.25;2.75;;;11.40;99.90;;;;;;4957903;29;20228;-76
2023/12/11 12:34:39;;;;;;;6.20;2.65;;;11.40;99.90;;;;;;4957421;29;20561;-75
2023/12/11 12:37:08;;;;;;;6.45;3.78;;;11.40;99.90;;;;;;4958025;29;20285;-75
2023/12/11 12:39:35;;;;;;;6.03;3.05;;;11.40;99.90;;;;;;4957311;29;20366;-76
2023/12/11 12:42:06;;;;;;;8.93;4.82;;;11.50;99.90;;;;;;4958661;29;20232;-81
2023/12/11 12:44:39;;;;;;;9.65;5.45;;;11.50;99.90;;;;;;4965987;28;20632;-81
2023/12/11 12:47:09;;;;;;;6.57;3.88;;;11.50;99.90;;;;;;4938919;29;20248;-82
2023/12/11 12:49:36;;;;;;;5.28;3.15;;;11.50;99.90;;;;;;4945879;28;20223;-75
2023/12/11 12:52:03;;;;;;;6.55;3.15;;;11.50;99.90;;;;;;4971778;28;20314;-81
2023/12/11 12:54:48;;;;;;;4.03;2.85;;;11.50;99.90;;;;;;4958516;29;20255;-81
2023/12/11 12:57:15;;;;;;;5.35;2.25;;;11.50;99.90;;;;;;4958883;29;20232;-81
2023/12/11 12:59:43;;;;;;;6.40;3.40;;;11.60;99.90;;;;;;4959061;29;20232;-80